Time;durP1;ratioP1;P1;durP2;ratioP2;P2;SDS_P1;SDS_P2;PMS_P1;PMS_P2;Temp;Humidity;BMP_temperature;BMP_pressure;BME280_temperature;BME280_humidity;BME280_pressure;Samples;Min_cycle;Max_cycle;Signal;HPM_P1;HPM_P2
2023/07/25 00:02:59;;;;;;;2.80;1.38;;;;;;;21.87;51.78;100613.00;16110444;19;131013;-55
2023/07/25 00:08:21;;;;;;;1.92;1.13;;;;;;;21.86;51.79;100617.72;16125463;19;130185;-56
2023/07/25 00:13:46;;;;;;;3.35;1.52;;;;;;;21.85;51.96;100621.63;16107222;19;130015;-56
2023/07/25 00:19:08;;;;;;;1.77;1.10;;;;;;;21.86;51.51;100616.91;16113047;19;131890;-56
2023/07/25 00:24:30;;;;;;;2.05;1.38;;;;;;;21.86;51.91;100620.53;16121769;19;129792;-57
2023/07/25 00:29:52;;;;;;;2.78;1.23;;;;;;;21.85;51.74;100623.59;16113392;19;129162;-56
2023/07/25 00:35:14;;;;;;;2.47;1.30;;;;;;;21.83;51.59;100627.47;16112150;19;129914;-58
2023/07/25 00:40:39;;;;;;;2.85;1.10;;;;;;;21.83;51.58;100630.25;16114418;19;129435;-58
2023/07/25 00:46:01;;;;;;;2.03;1.40;;;;;;;21.83;52.00;100630.25;16109703;19;130935;-57
2023/07/25 00:51:23;;;;;;;3.88;1.10;;;;;;;21.83;52.03;100640.59;16105957;19;130421;-57
2023/07/25 00:56:45;;;;;;;1.95;1.10;;;;;;;21.82;51.76;100634.16;16111727;19;129785;-57
2023/07/25 01:02:08;;;;;;;2.47;1.10;;;;;;;21.81;51.75;100626.91;16107212;19;130036;-56
2023/07/25 01:07:31;;;;;;;2.15;1.00;;;;;;;21.80;51.85;100633.59;16105690;19;131404;-57
2023/07/25 01:12:53;;;;;;;2.78;1.20;;;;;;;21.80;51.77;100618.84;16115806;19;131118;-54
2023/07/25 01:18:15;;;;;;;2.72;1.10;;;;;;;21.79;52.17;100606.84;16123000;19;131122;-55
2023/07/25 01:23:38;;;;;;;3.65;1.13;;;;;;;21.79;52.02;100611.59;16122187;19;129898;-56
2023/07/25 01:29:00;;;;;;;2.05;1.00;;;;;;;21.77;52.00;100606.31;16121330;19;131024;-55
2023/07/25 01:34:22;;;;;;;2.47;1.20;;;;;;;21.78;52.31;100598.78;16121309;19;130487;-57
2023/07/25 01:39:44;;;;;;;1.98;1.02;;;;;;;21.76;52.15;100601.88;16118610;19;130178;-58
2023/07/25 01:45:07;;;;;;;1.80;0.90;;;;;;;21.76;52.48;100593.50;16118475;19;130788;-57
2023/07/25 01:50:30;;;;;;;1.90;1.10;;;;;;;21.75;52.03;100589.06;16126347;19;129910;-57
2023/07/25 01:55:53;;;;;;;1.20;1.10;;;;;;;21.74;52.17;100592.09;16125923;19;133619;-57
2023/07/25 02:01:15;;;;;;;1.55;1.00;;;;;;;21.74;52.00;100592.09;16121219;19;129866;-57
2023/07/25 02:06:37;;;;;;;1.30;0.80;;;;;;;21.73;51.95;100585.69;16119215;19;130500;-57
2023/07/25 02:12:00;;;;;;;3.08;1.30;;;;;;;21.74;52.46;100592.09;16118930;19;129877;-57
2023/07/25 02:17:22;;;;;;;1.92;1.00;;;;;;;21.73;52.32;100580.13;16119753;19;130685;-58
2023/07/25 02:22:44;;;;;;;1.73;1.00;;;;;;;21.71;52.51;100579.56;16116194;19;130921;-55
2023/07/25 02:28:06;;;;;;;1.55;0.88;;;;;;;21.71;52.36;100581.53;16119227;19;130984;-57
2023/07/25 02:33:28;;;;;;;1.63;0.90;;;;;;;21.71;52.37;100589.88;16116457;19;130542;-57
2023/07/25 02:38:50;;;;;;;1.60;1.00;;;;;;;21.70;52.16;100586.25;16117567;19;129774;-57
2023/07/25 02:44:12;;;;;;;1.30;0.85;;;;;;;21.70;52.48;100574.28;16117924;19;133732;-57
2023/07/25 02:49:34;;;;;;;2.70;1.00;;;;;;;21.69;52.05;100575.41;16117432;19;129551;-57
2023/07/25 02:54:56;;;;;;;1.25;0.93;;;;;;;21.68;52.04;100577.31;16120186;19;130737;-56
2023/07/25 03:00:18;;;;;;;1.50;1.00;;;;;;;21.67;52.25;100575.66;16112863;19;129609;-57
2023/07/25 03:05:40;;;;;;;1.77;1.10;;;;;;;21.66;52.17;100580.41;16112431;19;130989;-57
2023/07/25 03:11:02;;;;;;;2.13;1.00;;;;;;;21.65;52.00;100584.28;16115614;19;129971;-57
2023/07/25 03:16:24;;;;;;;3.78;1.13;;;;;;;21.65;52.26;100573.16;16114316;19;129866;-56
2023/07/25 03:21:46;;;;;;;1.90;0.90;;;;;;;21.64;52.33;100577.06;16110281;19;129778;-57
2023/07/25 03:27:08;;;;;;;1.35;0.90;;;;;;;21.63;52.58;100583.72;16113747;19;130709;-56
2023/07/25 03:32:30;;;;;;;1.75;1.05;;;;;;;21.63;52.38;100583.72;16112152;19;131791;-57
2023/07/25 03:37:52;;;;;;;1.50;0.90;;;;;;;21.63;52.58;100585.69;16111460;19;129463;-56
2023/07/25 03:43:14;;;;;;;1.10;1.00;;;;;;;21.62;52.38;100584.00;16108383;19;130284;-57
2023/07/25 03:48:36;;;;;;;1.00;0.82;;;;;;;21.61;52.29;100583.16;16114160;19;132060;-55
2023/07/25 03:53:58;;;;;;;1.27;0.90;;;;;;;21.60;52.42;100572.31;16110983;19;130388;-57
2023/07/25 03:59:20;;;;;;;1.23;0.98;;;;;;;21.60;52.18;100563.97;16115295;19;129592;-58
2023/07/25 04:04:42;;;;;;;1.38;1.00;;;;;;;21.61;52.37;100585.13;16108190;19;130587;-57
2023/07/25 04:10:05;;;;;;;4.20;0.90;;;;;;;21.58;52.57;100578.16;16112282;19;129593;-56
2023/07/25 04:15:27;;;;;;;1.23;0.90;;;;;;;21.57;52.22;100578.44;16112015;19;129688;-57
2023/07/25 04:20:49;;;;;;;1.98;1.15;;;;;;;21.57;52.14;100593.19;16110106;19;129349;-55
2023/07/25 04:26:10;;;;;;;1.75;1.08;;;;;;;21.57;52.42;100581.22;16109792;19;129488;-57
2023/07/25 04:31:32;;;;;;;2.80;1.00;;;;;;;21.56;52.07;100574.81;16108202;19;129555;-57
2023/07/25 04:36:55;;;;;;;0.88;0.82;;;;;;;21.55;52.33;100573.16;16103494;19;130980;-56
2023/07/25 04:42:17;;;;;;;1.40;0.82;;;;;;;21.55;52.34;100578.72;16113016;19;133995;-57
2023/07/25 04:47:39;;;;;;;1.35;0.93;;;;;;;21.55;52.18;100572.28;16117697;19;131255;-57
2023/07/25 04:53:01;;;;;;;1.85;1.00;;;;;;;21.54;52.59;100579.81;16119857;19;129996;-58
2023/07/25 04:58:23;;;;;;;2.65;1.00;;;;;;;21.55;52.58;100589.00;16123736;19;129630;-57
2023/07/25 05:03:44;;;;;;;2.28;1.00;;;;;;;21.52;52.16;100591.25;16125869;19;130589;-57
2023/07/25 05:09:06;;;;;;;1.85;0.80;;;;;;;21.53;52.33;100583.72;16123002;19;130098;-57
2023/07/25 05:14:28;;;;;;;5.20;1.08;;;;;;;21.52;52.43;100593.16;16123713;19;129890;-57
2023/07/25 05:19:50;;;;;;;2.85;0.93;;;;;;;21.52;52.25;100596.81;16102522;19;130774;-58
2023/07/25 05:25:12;;;;;;;4.13;0.95;;;;;;;21.53;52.60;100603.19;16121596;19;131037;-59
2023/07/25 05:30:34;;;;;;;1.13;0.90;;;;;;;21.52;52.74;100602.38;16121842;19;130452;-59
2023/07/25 05:36:03;;;;;;;2.78;0.80;;;;;;;21.55;52.48;100600.13;16121943;19;129715;-60
2023/07/25 05:41:25;;;;;;;1.88;0.90;;;;;;;21.53;52.37;100605.97;16111885;19;130417;-60
2023/07/25 05:46:47;;;;;;;2.63;1.00;;;;;;;21.54;52.16;100609.63;16122890;19;130238;-59
2023/07/25 05:52:09;;;;;;;2.60;1.10;;;;;;;21.54;52.23;100609.63;16122430;19;131267;-59
2023/07/25 05:57:31;;;;;;;1.25;0.95;;;;;;;21.55;52.44;100608.47;16122751;19;130306;-60
2023/07/25 06:02:53;;;;;;;4.10;1.17;;;;;;;21.57;52.20;100609.91;16123117;19;129226;-59
2023/07/25 06:08:15;;;;;;;1.95;1.02;;;;;;;21.60;51.98;100622.41;16123002;19;129953;-59
2023/07/25 06:13:39;;;;;;;9.57;1.37;;;;;;;21.61;51.76;100624.09;16123456;19;130683;-59
2023/07/25 06:19:02;;;;;;;2.67;1.13;;;;;;;21.61;51.80;100615.75;16122795;19;129707;-59
2023/07/25 06:24:24;;;;;;;2.63;1.10;;;;;;;21.61;51.81;100615.75;16117461;19;131380;-58
2023/07/25 06:29:46;;;;;;;4.95;1.10;;;;;;;21.62;51.52;100611.84;16124420;19;129341;-59
2023/07/25 06:35:08;;;;;;;3.33;1.10;;;;;;;21.63;51.37;100613.53;16118861;19;130364;-57
2023/07/25 06:40:30;;;;;;;3.40;1.17;;;;;;;21.66;51.60;100615.78;16120878;19;129278;-58
2023/07/25 06:45:53;;;;;;;2.15;1.05;;;;;;;21.70;51.38;100614.09;16120750;19;129857;-59
2023/07/25 06:51:15;;;;;;;2.47;0.88;;;;;;;21.75;51.84;100616.03;16118540;19;130628;-60
2023/07/25 06:56:37;;;;;;;5.10;1.38;;;;;;;21.75;50.97;100622.47;16121173;19;129291;-60
2023/07/25 07:01:58;;;;;;;3.40;1.35;;;;;;;21.73;50.97;100624.69;16116827;19;131148;-60
2023/07/25 07:07:21;;;;;;;4.82;1.40;;;;;;;21.72;51.02;100642.50;16111428;19;130704;-60
2023/07/25 07:12:47;;;;;;;4.35;1.05;;;;;;;21.70;50.95;100639.16;16114745;19;129511;-64
2023/07/25 07:18:09;;;;;;;5.43;1.27;;;;;;;21.70;50.56;100649.47;16117363;19;129537;-59
2023/07/25 07:23:33;;;;;;;3.85;1.10;;;;;;;21.71;50.77;100646.38;16115381;19;129454;-60
2023/07/25 07:28:54;;;;;;;7.70;1.40;;;;;;;21.72;50.73;100647.25;16115763;19;129371;-66
2023/07/25 07:34:17;;;;;;;3.03;1.10;;;;;;;21.77;50.77;100653.66;16117439;19;130425;-57
2023/07/25 07:39:41;;;;;;;3.63;1.42;;;;;;;21.78;50.81;100649.75;16110610;19;129660;-56
2023/07/25 07:45:03;;;;;;;5.28;1.10;;;;;;;21.82;50.08;100650.88;16110972;19;129586;-60
2023/07/25 07:50:28;;;;;;;6.00;1.10;;;;;;;21.84;50.41;100653.41;16114536;19;129851;-57
2023/07/25 07:55:50;;;;;;;3.17;1.08;;;;;;;21.85;50.11;100659.78;16116007;19;129679;-66
2023/07/25 08:01:21;;;;;;;3.63;1.27;;;;;;;21.82;49.95;100667.56;16113689;19;132467;-61
2023/07/25 08:06:43;;;;;;;5.28;1.50;;;;;;;21.80;49.58;100680.13;16110979;19;129786;-62
2023/07/25 08:12:06;;;;;;;4.55;1.13;;;;;;;21.80;49.62;100680.94;16111878;19;130672;-63
2023/07/25 08:17:28;;;;;;;3.50;0.85;;;;;;;21.79;49.74;100689.56;16113648;19;130494;-58
2023/07/25 08:22:50;;;;;;;3.80;1.08;;;;;;;21.79;49.66;100695.13;16109932;19;129446;-61
2023/07/25 08:28:12;;;;;;;2.90;1.00;;;;;;;21.77;49.44;100687.06;16111927;19;129504;-62
2023/07/25 08:33:36;;;;;;;2.78;1.02;;;;;;;21.78;49.78;100691.53;16109128;19;130593;-61
2023/07/25 08:38:58;;;;;;;4.13;1.30;;;;;;;21.78;49.66;100699.88;16108363;19;130705;-61
2023/07/25 08:44:21;;;;;;;6.88;1.20;;;;;;;21.80;49.63;100708.78;16110042;19;129664;-58
2023/07/25 08:49:46;;;;;;;3.67;1.10;;;;;;;21.82;49.51;100705.75;16108897;19;130435;-59
2023/07/25 08:55:08;;;;;;;5.30;1.10;;;;;;;21.83;49.49;100713.81;16112317;19;130734;-63
2023/07/25 09:00:31;;;;;;;4.57;1.35;;;;;;;21.83;49.64;100713.81;16106827;19;129795;-67
2023/07/25 09:05:53;;;;;;;6.03;1.00;;;;;;;21.82;49.93;100723.28;16111089;19;130755;-61
2023/07/25 09:11:19;;;;;;;3.15;1.10;;;;;;;21.82;50.05;100717.69;16108908;19;130188;-60
2023/07/25 09:16:41;;;;;;;3.80;1.00;;;;;;;21.83;49.89;100713.81;16106956;19;130483;-61
2023/07/25 09:22:03;;;;;;;2.50;0.75;;;;;;;21.85;49.84;100724.66;16108291;19;130948;-60
2023/07/25 09:27:26;;;;;;;4.90;0.90;;;;;;;21.90;50.01;100715.50;16106297;19;129518;-59
2023/07/25 09:32:50;;;;;;;2.15;0.93;;;;;;;21.94;49.79;100708.25;16112231;19;131123;-61
2023/07/25 09:38:12;;;;;;;4.60;1.45;;;;;;;21.97;49.73;100721.66;16123277;19;132621;-62
2023/07/25 09:43:34;;;;;;;2.65;1.05;;;;;;;22.02;50.07;100724.47;16125959;19;129683;-61
2023/07/25 09:48:56;;;;;;;5.18;1.20;;;;;;;22.10;50.14;100734.19;16122036;19;131491;-60
2023/07/25 09:54:18;;;;;;;6.07;0.95;;;;;;;22.11;50.05;100736.72;16123316;19;131456;-60
2023/07/25 09:59:40;;;;;;;4.43;1.00;;;;;;;22.12;50.05;100727.28;16121496;19;129738;-63
2023/07/25 10:05:02;;;;;;;4.43;1.40;;;;;;;22.14;50.14;100724.19;16119260;19;129775;-61
2023/07/25 10:10:25;;;;;;;2.97;1.08;;;;;;;22.16;49.78;100732.28;16115569;19;130001;-61
2023/07/25 10:15:49;;;;;;;7.80;1.30;;;;;;;22.17;49.89;100731.16;16120024;19;130668;-62
2023/07/25 10:21:11;;;;;;;4.45;0.85;;;;;;;22.19;49.81;100731.72;16114177;19;133050;-62
2023/07/25 10:26:33;;;;;;;5.47;1.05;;;;;;;22.18;49.65;100735.63;16113377;19;129518;-63
2023/07/25 10:31:55;;;;;;;5.20;1.17;;;;;;;22.17;49.39;100731.16;16108479;19;131139;-62
2023/07/25 10:37:28;;;;;;;3.17;1.00;;;;;;;22.16;49.06;100729.47;16108878;19;130015;-63
2023/07/25 10:42:51;;;;;;;4.00;1.00;;;;;;;22.11;49.21;100731.16;16109777;19;129581;-63
2023/07/25 10:48:43;;;;;;;3.60;0.90;;;;;;;22.08;48.91;100742.03;16108436;19;129759;-62
2023/07/25 10:54:09;;;;;;;4.07;1.35;;;;;;;22.02;49.17;100729.19;16109610;19;129665;-63
2023/07/25 10:59:30;;;;;;;5.57;0.80;;;;;;;22.01;48.84;100728.34;16115124;19;129730;-62
2023/07/25 11:05:12;;;;;;;4.13;1.55;;;;;;;22.00;48.88;100725.81;16117903;19;130413;-62
2023/07/25 11:10:35;;;;;;;2.40;1.15;;;;;;;21.98;49.05;100740.03;16114520;19;129879;-61
2023/07/25 11:15:57;;;;;;;1.80;0.68;;;;;;;21.98;48.99;100738.06;16112514;19;130254;-60
2023/07/25 11:21:19;;;;;;;2.42;1.00;;;;;;;22.00;49.21;100729.47;16111727;19;130128;-60
2023/07/25 11:26:43;;;;;;;2.40;0.70;;;;;;;22.02;48.93;100732.81;16113314;19;131927;-55
2023/07/25 11:32:05;;;;;;;3.75;0.80;;;;;;;22.07;48.83;100734.78;16115097;19;131424;-55
2023/07/25 11:37:27;;;;;;;6.18;1.30;;;;;;;22.09;49.15;100733.38;16112038;19;130542;-54
2023/07/25 11:42:49;;;;;;;4.82;1.10;;;;;;;22.13;48.99;100730.88;16107732;19;129698;-55
2023/07/25 11:48:15;;;;;;;10.55;1.15;;;;;;;22.12;48.88;100731.97;16110191;19;129660;-54
2023/07/25 11:53:37;;;;;;;3.80;1.03;;;;;;;22.12;48.68;100737.56;16113728;19;129698;-55
2023/07/25 11:58:59;;;;;;;5.68;0.93;;;;;;;22.12;49.13;100731.97;16109680;19;129423;-56
2023/07/25 12:04:21;;;;;;;5.65;1.13;;;;;;;22.13;48.70;100731.72;16106138;19;129666;-56
2023/07/25 12:09:53;;;;;;;4.32;1.15;;;;;;;22.17;48.69;100726.44;16112805;19;129527;-53
2023/07/25 12:15:15;;;;;;;4.40;1.08;;;;;;;22.16;48.45;100751.78;16110761;19;131350;-59
2023/07/25 12:20:40;;;;;;;3.83;1.00;;;;;;;22.15;48.37;100747.34;16108705;19;131035;-60
2023/07/25 12:26:20;;;;;;;3.35;0.90;;;;;;;22.15;47.97;100758.47;16112892;19;129617;-55
2023/07/25 12:31:43;;;;;;;2.80;0.98;;;;;;;22.16;47.69;100749.84;16105622;19;131979;-61
2023/07/25 12:37:06;;;;;;;6.25;0.98;;;;;;;22.13;47.53;100756.81;16101408;19;129524;-60
2023/07/25 12:42:27;;;;;;;2.70;0.98;;;;;;;22.12;47.37;100765.41;16106588;19;129492;-62
2023/07/25 12:47:49;;;;;;;8.20;1.30;;;;;;;22.08;47.22;100775.47;16106847;19;130072;-62
2023/07/25 12:53:11;;;;;;;12.55;1.98;;;;;;;22.04;47.27;100777.94;16104866;19;130432;-63
2023/07/25 12:58:33;;;;;;;5.20;1.15;;;;;;;22.03;46.96;100776.25;16107242;19;131286;-63
2023/07/25 13:03:55;;;;;;;3.95;0.88;;;;;;;22.03;46.93;100772.63;16104886;19;132427;-63
2023/07/25 13:09:17;;;;;;;3.85;1.15;;;;;;;22.03;46.54;100776.25;16113742;19;134509;-63
2023/07/25 13:14:39;;;;;;;9.15;1.30;;;;;;;22.05;46.50;100776.81;16123938;19;129798;-63
2023/07/25 13:20:04;;;;;;;2.70;0.68;;;;;;;22.06;46.21;100767.34;16119472;19;131465;-63
2023/07/25 13:25:27;;;;;;;7.22;0.95;;;;;;;22.05;46.01;100770.44;16117089;19;129558;-62
2023/07/25 13:30:48;;;;;;;2.92;0.70;;;;;;;22.02;45.96;100780.19;16116344;19;129346;-63
2023/07/25 13:36:10;;;;;;;3.20;0.98;;;;;;;22.00;45.80;100779.59;16118806;19;130715;-63
2023/07/25 13:41:32;;;;;;;4.00;0.90;;;;;;;21.99;45.67;100780.72;16122503;19;130899;-63
2023/07/25 13:46:55;;;;;;;2.63;0.82;;;;;;;21.97;45.65;100780.16;16121378;19;131302;-62
2023/07/25 13:52:17;;;;;;;4.10;1.00;;;;;;;21.95;45.50;100783.22;16119256;19;131815;-62
2023/07/25 13:57:39;;;;;;;2.60;0.68;;;;;;;21.94;45.10;100789.03;16118708;19;129892;-62
2023/07/25 14:03:01;;;;;;;2.08;0.80;;;;;;;21.96;45.09;100789.59;16122290;19;129266;-62
2023/07/25 14:08:23;;;;;;;3.08;0.70;;;;;;;22.00;44.59;100792.69;16118871;19;131231;-61
2023/07/25 14:13:45;;;;;;;10.55;4.78;;;;;;;22.00;45.08;100789.88;16113376;19;131395;-61
2023/07/25 14:19:07;;;;;;;10.50;4.65;;;;;;;22.00;44.93;100799.09;16118106;19;129386;-63
2023/07/25 14:24:29;;;;;;;9.65;3.65;;;;;;;21.98;44.70;100798.53;16119568;19;129715;-63
2023/07/25 14:29:51;;;;;;;14.35;3.70;;;;;;;21.96;44.52;100806.31;16122530;19;129863;-59
2023/07/25 14:35:13;;;;;;;8.18;3.42;;;;;;;21.98;44.43;100806.88;16124394;19;129710;-61
2023/07/25 14:40:35;;;;;;;5.72;2.70;;;;;;;22.00;44.62;100806.59;16121815;19;130972;-60
2023/07/25 14:45:57;;;;;;;5.85;2.67;;;;;;;22.00;44.61;100803.81;16122140;19;130672;-60
2023/07/25 14:51:19;;;;;;;8.93;2.40;;;;;;;22.00;44.07;100813.03;16120116;19;130251;-66
2023/07/25 14:56:41;;;;;;;12.38;2.15;;;;;;;21.96;44.04;100814.69;16119697;19;130963;-65
2023/07/25 15:02:03;;;;;;;9.35;2.50;;;;;;;21.93;44.05;100829.13;16120580;19;129380;-65
2023/07/25 15:07:26;;;;;;;6.15;1.83;;;;;;;21.91;44.12;100836.94;16120936;19;129941;-64
2023/07/25 15:12:48;;;;;;;10.13;1.90;;;;;;;21.90;44.33;100836.09;16121302;19;131410;-65
2023/07/25 15:18:10;;;;;;;7.13;1.70;;;;;;;21.89;44.24;100839.16;16120301;19;130866;-64
2023/07/25 15:23:32;;;;;;;6.85;1.88;;;;;;;21.87;44.02;100842.19;16122136;19;133427;-65
2023/07/25 15:28:54;;;;;;;3.85;1.25;;;;;;;21.88;44.03;100845.84;16114507;19;132008;-62
2023/07/25 15:34:17;;;;;;;5.65;1.88;;;;;;;21.88;44.36;100843.06;16114522;19;130488;-63
2023/07/25 15:39:39;;;;;;;3.78;1.50;;;;;;;21.88;44.22;100856.97;16114105;19;130595;-62
2023/07/25 15:45:16;;;;;;;5.18;1.20;;;;;;;21.89;43.88;100856.69;16108240;19;129964;-64
2023/07/25 15:50:38;;;;;;;3.58;1.13;;;;;;;21.89;44.02;100861.44;16115606;19;131017;-64
2023/07/25 15:56:00;;;;;;;3.28;1.10;;;;;;;21.87;43.96;100852.50;16113114;19;129567;-63
2023/07/25 16:01:22;;;;;;;3.60;1.02;;;;;;;21.87;43.54;100856.13;16113834;19;129514;-63
2023/07/25 16:06:44;;;;;;;2.33;0.85;;;;;;;21.89;43.91;100858.66;16112578;19;131651;-64
2023/07/25 16:12:07;;;;;;;2.85;0.75;;;;;;;21.88;43.66;100857.81;16116263;19;129683;-63
2023/07/25 16:17:29;;;;;;;3.63;1.00;;;;;;;21.88;43.43;100860.59;16110376;19;130312;-63
2023/07/25 16:22:51;;;;;;;2.67;0.75;;;;;;;21.88;43.32;100860.59;16115145;19;129962;-73
2023/07/25 16:28:13;;;;;;;1.90;0.70;;;;;;;21.86;43.28;100862.81;16116392;19;130048;-71
2023/07/25 16:33:35;;;;;;;4.50;0.70;;;;;;;21.89;43.26;100855.88;16118878;19;129568;-73
2023/07/25 16:38:57;;;;;;;8.32;1.27;;;;;;;21.90;43.46;100868.69;16119672;19;132741;-72
2023/07/25 16:44:19;;;;;;;4.25;1.27;;;;;;;21.92;43.29;100864.53;16112648;19;129700;-59
2023/07/25 16:49:41;;;;;;;6.20;1.08;;;;;;;21.98;43.38;100873.75;16110187;19;130033;-63
2023/07/25 16:55:03;;;;;;;8.82;1.55;;;;;;;22.01;43.08;100887.13;16111888;19;129935;-64
2023/07/25 17:00:25;;;;;;;4.38;0.80;;;;;;;22.01;42.74;100889.91;16113804;19;130075;-55
2023/07/25 17:05:47;;;;;;;3.58;0.95;;;;;;;21.99;42.55;100886.56;16113309;19;131737;-64
2023/07/25 17:11:11;;;;;;;2.95;0.60;;;;;;;21.98;42.21;100893.25;16112829;19;130338;-64
2023/07/25 17:16:33;;;;;;;4.65;0.95;;;;;;;21.95;41.92;100900.19;16111316;19;129206;-62
2023/07/25 17:21:55;;;;;;;3.00;0.70;;;;;;;21.95;42.26;100899.34;16109166;19;130970;-63
2023/07/25 17:27:17;;;;;;;1.92;0.60;;;;;;;21.94;41.98;100900.44;16109906;19;130093;-66
2023/07/25 17:32:39;;;;;;;3.65;0.65;;;;;;;21.90;41.69;100907.69;16107936;19;129997;-67
2023/07/25 17:38:01;;;;;;;1.05;0.57;;;;;;;21.92;41.70;100916.59;16106967;19;130031;-67
2023/07/25 17:43:24;;;;;;;5.13;1.10;;;;;;;21.90;41.72;100916.03;16102545;19;131121;-67
2023/07/25 17:48:46;;;;;;;3.60;0.50;;;;;;;21.89;41.91;100917.97;16104137;19;130385;-66
2023/07/25 17:54:08;;;;;;;2.15;0.50;;;;;;;21.89;41.66;100925.50;16113926;19;130482;-66
2023/07/25 17:59:29;;;;;;;3.03;0.60;;;;;;;21.87;41.65;100933.28;16122840;19;130871;-66
2023/07/25 18:04:51;;;;;;;4.22;0.55;;;;;;;21.87;41.87;100930.50;16115070;19;130516;-66
2023/07/25 18:10:13;;;;;;;1.50;0.55;;;;;;;21.85;42.24;100932.72;16114654;19;130968;-66
2023/07/25 18:15:35;;;;;;;1.58;0.57;;;;;;;21.82;41.68;100946.06;16118362;19;131254;-66
2023/07/25 18:20:57;;;;;;;3.28;0.73;;;;;;;21.82;41.94;100945.22;16119641;19;134124;-66
2023/07/25 18:26:19;;;;;;;1.92;0.50;;;;;;;21.79;41.80;100952.16;16126769;19;129633;-66
2023/07/25 18:31:41;;;;;;;1.45;0.57;;;;;;;21.77;42.20;100954.38;16140332;19;129561;-66
2023/07/25 18:37:04;;;;;;;2.42;0.75;;;;;;;21.76;42.41;100963.84;16142698;19;130842;-66
2023/07/25 18:42:26;;;;;;;1.13;0.50;;;;;;;21.75;42.54;100976.09;16145838;19;130195;-66
2023/07/25 18:47:49;;;;;;;1.70;0.47;;;;;;;21.74;42.47;100977.19;16146977;19;129608;-65
2023/07/25 18:53:11;;;;;;;1.15;0.40;;;;;;;21.73;42.52;100980.22;16148415;19;129105;-66
2023/07/25 18:58:33;;;;;;;1.80;0.52;;;;;;;21.72;42.94;100979.41;16145370;19;129246;-67
2023/07/25 19:03:56;;;;;;;1.63;0.40;;;;;;;21.71;43.16;100988.84;16166642;19;129498;-66
2023/07/25 19:09:20;;;;;;;4.82;0.50;;;;;;;21.70;43.03;100998.31;16205337;19;129726;-68
2023/07/25 19:14:42;;;;;;;12.30;0.98;;;;;;;21.70;43.50;101015.00;16206561;19;128227;-66
2023/07/25 19:20:05;;;;;;;22.48;1.67;;;;;;;21.70;43.38;101009.44;16207340;19;129614;-63
2023/07/25 19:25:27;;;;;;;15.25;1.20;;;;;;;21.70;43.72;101014.19;16207438;19;129385;-69
2023/07/25 19:30:49;;;;;;;13.63;1.23;;;;;;;21.72;43.99;101012.81;16199420;19;129022;-69
2023/07/25 19:36:11;;;;;;;13.07;1.08;;;;;;;21.75;44.07;101014.22;16197159;19;129435;-66
2023/07/25 19:41:36;;;;;;;18.52;1.50;;;;;;;21.74;43.98;101024.53;16199465;19;129488;-70
2023/07/25 19:46:58;;;;;;;11.20;1.30;;;;;;;21.75;44.18;101028.13;16200265;19;128596;-68
2023/07/25 19:52:20;;;;;;;13.77;1.33;;;;;;;21.75;44.95;101040.13;16199875;19;130213;-67
2023/07/25 19:57:41;;;;;;;20.08;1.50;;;;;;;21.78;45.33;101044.31;16201229;19;128497;-66
2023/07/25 20:03:03;;;;;;;17.02;1.77;;;;;;;21.76;44.77;101047.38;16197762;19;129564;-67
2023/07/25 20:08:26;;;;;;;20.42;1.63;;;;;;;21.75;45.11;101062.41;16196768;19;129764;-66
2023/07/25 20:13:47;;;;;;;9.73;1.63;;;;;;;21.74;45.09;101068.22;16195855;19;129467;-66
2023/07/25 20:19:09;;;;;;;12.60;1.42;;;;;;;21.72;45.31;101067.69;16201968;19;128613;-66
2023/07/25 20:24:31;;;;;;;12.85;1.15;;;;;;;21.70;44.93;101065.13;16135890;19;130088;-66
2023/07/25 20:29:53;;;;;;;13.55;1.13;;;;;;;21.69;45.30;101074.59;16131651;19;129358;-66
2023/07/25 20:35:15;;;;;;;4.43;0.90;;;;;;;21.67;45.31;101077.66;16130995;19;130318;-67
2023/07/25 20:40:37;;;;;;;9.38;1.27;;;;;;;21.66;45.44;101089.06;16134506;19;132184;-67
2023/07/25 20:46:03;;;;;;;8.68;0.88;;;;;;;21.66;45.75;101091.84;16133524;19;129604;-67
2023/07/25 20:51:25;;;;;;;9.82;1.08;;;;;;;21.65;45.53;101084.59;16134293;19;130467;-68
2023/07/25 20:56:47;;;;;;;6.68;0.70;;;;;;;21.62;45.82;101085.94;16124591;19;130861;-66
2023/07/25 21:02:09;;;;;;;7.28;1.10;;;;;;;21.62;45.71;101085.94;16109369;19;130061;-67
2023/07/25 21:07:31;;;;;;;5.35;0.73;;;;;;;21.60;45.80;101085.34;16111872;19;129589;-66
2023/07/25 21:12:53;;;;;;;6.20;1.00;;;;;;;21.60;45.63;101090.09;16116463;19;129573;-66
2023/07/25 21:18:15;;;;;;;6.45;0.93;;;;;;;21.59;46.23;101097.63;16116454;19;130316;-67
2023/07/25 21:23:37;;;;;;;5.57;0.80;;;;;;;21.59;46.01;101093.97;16116830;19;133457;-66
2023/07/25 21:28:59;;;;;;;5.05;0.85;;;;;;;21.57;46.03;101090.63;16122486;19;131044;-66
2023/07/25 21:34:21;;;;;;;4.97;0.80;;;;;;;21.56;46.21;101091.72;16129296;19;129802;-66
2023/07/25 21:39:43;;;;;;;2.17;1.00;;;;;;;21.55;46.37;101095.59;16120986;19;130108;-66
2023/07/25 21:45:06;;;;;;;7.95;0.80;;;;;;;21.56;46.28;101108.41;16124033;19;129686;-66
2023/07/25 21:50:28;;;;;;;2.55;0.63;;;;;;;21.55;46.04;101101.16;16126973;19;130572;-66
2023/07/25 21:55:50;;;;;;;4.47;0.70;;;;;;;21.54;46.43;101105.09;16125299;19;130202;-66
2023/07/25 22:01:13;;;;;;;2.55;0.85;;;;;;;21.53;46.45;101101.44;16127147;19;130830;-66
2023/07/25 22:06:35;;;;;;;5.38;0.70;;;;;;;21.53;46.68;101104.22;16118935;19;130914;-66
2023/07/25 22:11:57;;;;;;;2.83;0.77;;;;;;;21.51;46.66;101110.06;16131178;19;130551;-66
2023/07/25 22:17:19;;;;;;;4.57;0.85;;;;;;;21.51;46.25;101110.06;16128836;19;129895;-66
2023/07/25 22:22:41;;;;;;;5.93;0.90;;;;;;;21.51;46.48;101117.56;16131836;19;130425;-66
2023/07/25 22:28:03;;;;;;;3.45;0.80;;;;;;;21.51;46.83;101112.00;16131894;19;129867;-66
2023/07/25 22:33:25;;;;;;;4.47;0.70;;;;;;;21.49;46.40;101109.47;16130753;19;129479;-66
2023/07/25 22:38:47;;;;;;;2.90;0.80;;;;;;;21.49;46.90;101112.25;16124623;19;129412;-66
2023/07/25 22:44:09;;;;;;;3.55;0.57;;;;;;;21.49;46.96;101109.47;16128608;19;130124;-67
2023/07/25 22:49:31;;;;;;;3.38;0.60;;;;;;;21.48;46.85;101102.19;16128232;19;131047;-66
2023/07/25 22:54:53;;;;;;;4.00;0.73;;;;;;;21.48;46.65;101104.13;16125098;19;129394;-67
2023/07/25 23:00:16;;;;;;;2.70;0.57;;;;;;;21.47;46.48;101108.88;16125541;19;129938;-66
2023/07/25 23:05:37;;;;;;;2.10;0.60;;;;;;;21.48;46.74;101112.47;16123077;19;130133;-67
2023/07/25 23:11:00;;;;;;;1.00;0.40;;;;;;;21.47;47.00;101106.09;16123926;19;129188;-67
2023/07/25 23:16:22;;;;;;;2.50;0.70;;;;;;;21.46;46.66;101117.50;16124550;19;129276;-67
2023/07/25 23:21:44;;;;;;;1.67;0.60;;;;;;;21.46;46.57;101112.75;16122291;19;129951;-67
2023/07/25 23:27:06;;;;;;;2.58;0.82;;;;;;;21.46;47.07;101106.34;16123906;19;129517;-67
2023/07/25 23:32:29;;;;;;;2.85;0.65;;;;;;;21.44;46.85;101106.59;16123495;19;129784;-67
2023/07/25 23:37:52;;;;;;;1.63;0.50;;;;;;;21.44;46.85;101101.03;16118388;19;130165;-67
2023/07/25 23:43:15;;;;;;;1.75;0.50;;;;;;;21.44;46.94;101106.59;16119044;19;130911;-67
2023/07/25 23:48:37;;;;;;;2.85;0.50;;;;;;;21.42;47.00;101113.53;16117100;19;133959;-67
2023/07/25 23:53:59;;;;;;;2.40;0.55;;;;;;;21.42;47.17;101114.34;16116907;19;130134;-66
2023/07/25 23:59:21;;;;;;;1.52;0.45;;;;;;;21.43;46.72;101115.22;16117363;19;130383;-66
